GCTS Airport Information

Runway Information
Runway 08 Length 10499 ft width 148 ft
Elevation 187 ft Threshold 0 ft Heading 69
Runway 26 Length 10499 ft Width 148 ft
Elevation 209 ft Threshold 0 ft Heading 249
Airport Frequencies
Type APP Name APP Frequency 120.3 MHZ
Type ATIS Name ATIS Frequency 118.675 MHZ
Type GND Name GND Frequency 121.9 MHZ
Type TWR Name TWR Frequency 119 MHZ
Airport Navaids
Type NDB Name Tenerife Sur Frequency 317 KHZ
Type VOR-DME Name Tenerife Sur Frequency 116400 KHZ
Airport Weather Information & NOTAM
ADDS - METARS form results

(0442 UTC 19 June 2019)
Data provider http://aviationweather.gov/metar/data/
 
METAR text: GCTS 190430Z 34001KT 9999 SCT040 21/16 Q1018 NOSIG
Conditions at: GCTS (TENERIFE SUR/REI, ES) observed 0430 UTC 19 June 2019
Temperature: 21.0°C (70°F)
Dewpoint: 16.0°C (61°F) [RH = 73%]
Pressure (altimeter): 30.06 inches Hg (1018.0 mb)
Winds: from the NNW (340 degrees) at 1 MPH (1 knots; 0.5 m/s)
Visibility: 6 or more miles (10+ km)
Ceiling: at least 12,000 feet AGL
Clouds: scattered clouds at 4000 feet AGL
Weather: no significant weather observed at this time

METAR text: GCTS 190400Z 00000KT 9999 SCT040 21/18 Q1018 NOSIG
Conditions at: GCTS (TENERIFE SUR/REI, ES) observed 0400 UTC 19 June 2019
Temperature: 21.0°C (70°F)
Dewpoint: 18.0°C (64°F) [RH = 83%]
Pressure (altimeter): 30.06 inches Hg (1018.0 mb)
Winds: calm
Visibility: 6 or more miles (10+ km)
Ceiling: at least 12,000 feet AGL
Clouds: scattered clouds at 4000 feet AGL
Weather: no significant weather observed at this time

Forecast for: GCTS (TENERIFE SUR/REI, ES)
Text: TAF GCTS 190200Z 1903/2003 VRB03KT 9999 BKN030 TX26/1914Z TN19/1906Z
Forecast period: 0300 to 1100 UTC 19 June 2019
Forecast type: FROM: standard forecast or significant change
Winds: variable direction winds at 3 MPH (3 knots; 1.5 m/s)
Visibility: 6 or more miles 10+ km)
Ceiling: 3000 feet AGL
Clouds: broken clouds at 3000 feet AGL
Weather: no significant weather forecast for this period
Text: BECMG 1911/1913 09010KT
Forecast period: 1100 UTC 19 June 2019 to 0300 UTC 20 June 2019
Forecast type: BECOMING: Conditions expected to become as follows by 1300 UTC 19 June 2019
Winds: from the E (90 degrees) at 12 MPH (10 knots; 5.1 m/s)
Visibility: 6 or more miles 10+ km)
Ceiling: 3000 feet AGL
Clouds: broken clouds at 3000 feet AGL
Weather: no significant weather forecast for this period